sensor_id;sensor_type;location;lat;lon;timestamp;temperature;humidity
71208;DHT22;58938;49.868;8.646;2022-08-05T00:01:05;31.40;31.40
71208;DHT22;58938;49.868;8.646;2022-08-05T00:03:35;31.40;31.50
71208;DHT22;58938;49.868;8.646;2022-08-05T00:06:00;31.30;31.70
71208;DHT22;58938;49.868;8.646;2022-08-05T00:08:26;31.20;31.90
71208;DHT22;58938;49.868;8.646;2022-08-05T00:10:51;31.10;32.10
71208;DHT22;58938;49.868;8.646;2022-08-05T00:13:17;31.00;32.80
71208;DHT22;58938;49.868;8.646;2022-08-05T00:15:43;30.80;33.30
71208;DHT22;58938;49.868;8.646;2022-08-05T00:18:08;30.70;33.50
71208;DHT22;58938;49.868;8.646;2022-08-05T00:20:34;30.60;33.80
71208;DHT22;58938;49.868;8.646;2022-08-05T00:22:59;30.60;34.00
71208;DHT22;58938;49.868;8.646;2022-08-05T00:25:25;30.50;34.70
71208;DHT22;58938;49.868;8.646;2022-08-05T00:27:50;30.40;35.60
71208;DHT22;58938;49.868;8.646;2022-08-05T00:30:16;30.30;36.30
71208;DHT22;58938;49.868;8.646;2022-08-05T00:32:41;30.20;36.70
71208;DHT22;58938;49.868;8.646;2022-08-05T00:35:07;30.10;36.80
71208;DHT22;58938;49.868;8.646;2022-08-05T00:37:33;30.10;37.20
71208;DHT22;58938;49.868;8.646;2022-08-05T00:39:59;30.00;37.30
71208;DHT22;58938;49.868;8.646;2022-08-05T00:42:32;30.00;37.50
71208;DHT22;58938;49.868;8.646;2022-08-05T00:44:58;30.00;37.50
71208;DHT22;58938;49.868;8.646;2022-08-05T00:47:24;30.00;37.80
71208;DHT22;58938;49.868;8.646;2022-08-05T00:49:49;30.00;37.80
71208;DHT22;58938;49.868;8.646;2022-08-05T00:52:15;30.00;37.80
71208;DHT22;58938;49.868;8.646;2022-08-05T00:54:41;30.00;37.90
71208;DHT22;58938;49.868;8.646;2022-08-05T00:57:06;29.90;37.80
71208;DHT22;58938;49.868;8.646;2022-08-05T00:59:32;30.00;37.80
71208;DHT22;58938;49.868;8.646;2022-08-05T01:01:57;30.00;37.80
71208;DHT22;58938;49.868;8.646;2022-08-05T01:04:23;30.00;37.90
71208;DHT22;58938;49.868;8.646;2022-08-05T01:06:48;30.00;37.90
71208;DHT22;58938;49.868;8.646;2022-08-05T01:09:14;30.00;37.90
71208;DHT22;58938;49.868;8.646;2022-08-05T01:11:40;30.00;37.90
71208;DHT22;58938;49.868;8.646;2022-08-05T01:14:11;30.00;37.90
71208;DHT22;58938;49.868;8.646;2022-08-05T01:24:46;29.90;38.20
71208;DHT22;58938;49.868;8.646;2022-08-05T01:27:44;29.90;38.30
71208;DHT22;58938;49.868;8.646;2022-08-05T01:30:11;29.90;38.10
71208;DHT22;58938;49.868;8.646;2022-08-05T01:32:40;29.90;38.20
71208;DHT22;58938;49.868;8.646;2022-08-05T01:35:10;29.90;38.20
71208;DHT22;58938;49.868;8.646;2022-08-05T01:37:44;29.90;38.20
71208;DHT22;58938;49.868;8.646;2022-08-05T01:40:13;29.90;38.20
71208;DHT22;58938;49.868;8.646;2022-08-05T01:42:41;29.90;38.20
71208;DHT22;58938;49.868;8.646;2022-08-05T01:45:09;29.90;38.20
71208;DHT22;58938;49.868;8.646;2022-08-05T01:47:36;29.90;38.20
71208;DHT22;58938;49.868;8.646;2022-08-05T01:50:05;29.90;38.20
71208;DHT22;58938;49.868;8.646;2022-08-05T01:52:36;29.90;38.10
71208;DHT22;58938;49.868;8.646;2022-08-05T01:55:05;29.90;38.20
71208;DHT22;58938;49.868;8.646;2022-08-05T01:57:35;29.90;38.20
71208;DHT22;58938;49.868;8.646;2022-08-05T02:00:05;29.80;38.20
71208;DHT22;58938;49.868;8.646;2022-08-05T02:02:31;29.80;38.20
71208;DHT22;58938;49.868;8.646;2022-08-05T02:05:06;29.80;38.10
71208;DHT22;58938;49.868;8.646;2022-08-05T02:07:35;29.80;38.10
71208;DHT22;58938;49.868;8.646;2022-08-05T02:10:02;29.80;38.00
71208;DHT22;58938;49.868;8.646;2022-08-05T02:12:40;29.80;38.10
71208;DHT22;58938;49.868;8.646;2022-08-05T02:15:12;29.80;38.20
71208;DHT22;58938;49.868;8.646;2022-08-05T02:17:52;29.80;38.30
71208;DHT22;58938;49.868;8.646;2022-08-05T02:20:23;29.80;38.20
71208;DHT22;58938;49.868;8.646;2022-08-05T02:22:57;29.80;38.30
71208;DHT22;58938;49.868;8.646;2022-08-05T02:25:33;29.80;38.30
71208;DHT22;58938;49.868;8.646;2022-08-05T02:28:00;29.70;38.30
71208;DHT22;58938;49.868;8.646;2022-08-05T02:30:31;29.70;38.40
71208;DHT22;58938;49.868;8.646;2022-08-05T02:33:00;29.70;38.50
71208;DHT22;58938;49.868;8.646;2022-08-05T02:35:27;29.70;38.50
71208;DHT22;58938;49.868;8.646;2022-08-05T02:37:54;29.70;38.60
71208;DHT22;58938;49.868;8.646;2022-08-05T02:40:22;29.70;38.60
71208;DHT22;58938;49.868;8.646;2022-08-05T02:42:49;29.70;38.70
71208;DHT22;58938;49.868;8.646;2022-08-05T02:45:16;29.70;38.90
71208;DHT22;58938;49.868;8.646;2022-08-05T02:47:42;29.60;39.10
71208;DHT22;58938;49.868;8.646;2022-08-05T02:50:10;29.60;39.30
71208;DHT22;58938;49.868;8.646;2022-08-05T02:52:38;29.60;39.40
71208;DHT22;58938;49.868;8.646;2022-08-05T02:55:06;29.60;39.40
71208;DHT22;58938;49.868;8.646;2022-08-05T02:57:32;29.60;39.50
71208;DHT22;58938;49.868;8.646;2022-08-05T02:59:59;29.60;39.60
71208;DHT22;58938;49.868;8.646;2022-08-05T03:02:27;29.50;39.70
71208;DHT22;58938;49.868;8.646;2022-08-05T03:04:54;29.50;39.80
71208;DHT22;58938;49.868;8.646;2022-08-05T03:07:22;29.50;40.00
71208;DHT22;58938;49.868;8.646;2022-08-05T03:09:47;29.50;40.50
71208;DHT22;58938;49.868;8.646;2022-08-05T03:12:33;29.40;41.00
71208;DHT22;58938;49.868;8.646;2022-08-05T03:14:59;29.40;41.20
71208;DHT22;58938;49.868;8.646;2022-08-05T03:17:25;29.30;41.40
71208;DHT22;58938;49.868;8.646;2022-08-05T03:19:50;29.30;41.70
71208;DHT22;58938;49.868;8.646;2022-08-05T03:22:16;29.30;41.90
71208;DHT22;58938;49.868;8.646;2022-08-05T03:24:43;29.20;42.10
71208;DHT22;58938;49.868;8.646;2022-08-05T03:27:09;29.20;42.60
71208;DHT22;58938;49.868;8.646;2022-08-05T03:29:35;29.10;42.90
71208;DHT22;58938;49.868;8.646;2022-08-05T03:32:03;29.10;43.70
71208;DHT22;58938;49.868;8.646;2022-08-05T03:34:29;29.00;44.30
71208;DHT22;58938;49.868;8.646;2022-08-05T03:36:56;29.00;44.80
71208;DHT22;58938;49.868;8.646;2022-08-05T03:39:22;29.00;45.10
71208;DHT22;58938;49.868;8.646;2022-08-05T03:41:47;29.00;45.50
71208;DHT22;58938;49.868;8.646;2022-08-05T03:44:13;28.90;45.80
71208;DHT22;58938;49.868;8.646;2022-08-05T03:46:39;28.80;46.40
71208;DHT22;58938;49.868;8.646;2022-08-05T03:49:04;28.80;46.70
71208;DHT22;58938;49.868;8.646;2022-08-05T03:51:34;28.70;47.40
71208;DHT22;58938;49.868;8.646;2022-08-05T03:54:09;28.50;47.20
71208;DHT22;58938;49.868;8.646;2022-08-05T03:56:42;28.30;47.60
71208;DHT22;58938;49.868;8.646;2022-08-05T03:59:12;28.20;48.00
71208;DHT22;58938;49.868;8.646;2022-08-05T04:01:44;28.10;48.30
71208;DHT22;58938;49.868;8.646;2022-08-05T04:04:12;28.00;48.50
71208;DHT22;58938;49.868;8.646;2022-08-05T04:06:38;27.90;48.60
71208;DHT22;58938;49.868;8.646;2022-08-05T04:09:04;27.90;48.80
71208;DHT22;58938;49.868;8.646;2022-08-05T04:11:32;27.90;49.10
71208;DHT22;58938;49.868;8.646;2022-08-05T04:13:59;27.90;49.10
71208;DHT22;58938;49.868;8.646;2022-08-05T04:16:24;27.90;49.30
71208;DHT22;58938;49.868;8.646;2022-08-05T04:18:51;27.90;49.50
71208;DHT22;58938;49.868;8.646;2022-08-05T04:21:16;27.90;49.80
71208;DHT22;58938;49.868;8.646;2022-08-05T04:23:42;27.80;50.10
71208;DHT22;58938;49.868;8.646;2022-08-05T04:26:08;27.80;50.40
71208;DHT22;58938;49.868;8.646;2022-08-05T04:28:34;27.70;50.60
71208;DHT22;58938;49.868;8.646;2022-08-05T04:31:00;27.60;51.00
71208;DHT22;58938;49.868;8.646;2022-08-05T04:33:26;27.60;51.10
71208;DHT22;58938;49.868;8.646;2022-08-05T04:35:52;27.60;51.20
71208;DHT22;58938;49.868;8.646;2022-08-05T04:38:17;27.60;51.20
71208;DHT22;58938;49.868;8.646;2022-08-05T04:40:43;27.60;51.40
71208;DHT22;58938;49.868;8.646;2022-08-05T04:43:08;27.50;51.70
71208;DHT22;58938;49.868;8.646;2022-08-05T04:45:36;27.50;51.80
71208;DHT22;58938;49.868;8.646;2022-08-05T04:48:06;27.40;52.00
71208;DHT22;58938;49.868;8.646;2022-08-05T04:50:38;27.50;52.10
71208;DHT22;58938;49.868;8.646;2022-08-05T04:53:04;27.40;52.10
71208;DHT22;58938;49.868;8.646;2022-08-05T04:55:29;27.40;52.10
71208;DHT22;58938;49.868;8.646;2022-08-05T04:57:57;27.40;52.10
71208;DHT22;58938;49.868;8.646;2022-08-05T05:00:23;27.40;52.20
71208;DHT22;58938;49.868;8.646;2022-08-05T05:02:48;27.40;52.40
71208;DHT22;58938;49.868;8.646;2022-08-05T05:05:14;27.40;52.70
71208;DHT22;58938;49.868;8.646;2022-08-05T05:07:39;27.40;52.90
71208;DHT22;58938;49.868;8.646;2022-08-05T05:10:05;27.30;53.00
71208;DHT22;58938;49.868;8.646;2022-08-05T05:12:31;27.30;53.10
71208;DHT22;58938;49.868;8.646;2022-08-05T05:14:57;27.20;53.10
71208;DHT22;58938;49.868;8.646;2022-08-05T05:17:23;27.20;53.20
71208;DHT22;58938;49.868;8.646;2022-08-05T05:19:48;27.20;53.30
71208;DHT22;58938;49.868;8.646;2022-08-05T05:22:14;27.20;53.50
71208;DHT22;58938;49.868;8.646;2022-08-05T05:24:39;27.20;53.70
71208;DHT22;58938;49.868;8.646;2022-08-05T05:27:05;27.10;53.80
71208;DHT22;58938;49.868;8.646;2022-08-05T05:29:30;27.10;53.80
71208;DHT22;58938;49.868;8.646;2022-08-05T05:31:56;27.10;53.90
71208;DHT22;58938;49.868;8.646;2022-08-05T05:34:22;27.00;54.10
71208;DHT22;58938;49.868;8.646;2022-08-05T05:36:47;27.00;54.30
71208;DHT22;58938;49.868;8.646;2022-08-05T05:39:13;27.00;54.50
71208;DHT22;58938;49.868;8.646;2022-08-05T05:41:38;27.00;54.60
71208;DHT22;58938;49.868;8.646;2022-08-05T05:44:04;27.00;54.80
71208;DHT22;58938;49.868;8.646;2022-08-05T05:46:29;27.00;54.90
71208;DHT22;58938;49.868;8.646;2022-08-05T05:48:55;27.00;54.90
71208;DHT22;58938;49.868;8.646;2022-08-05T05:51:22;27.00;54.90
71208;DHT22;58938;49.868;8.646;2022-08-05T05:53:49;26.90;55.00
71208;DHT22;58938;49.868;8.646;2022-08-05T05:56:15;26.90;55.00
71208;DHT22;58938;49.868;8.646;2022-08-05T05:58:40;26.90;55.00
71208;DHT22;58938;49.868;8.646;2022-08-05T06:01:06;26.90;55.00
71208;DHT22;58938;49.868;8.646;2022-08-05T06:03:31;26.90;55.00
71208;DHT22;58938;49.868;8.646;2022-08-05T06:05:57;26.90;55.00
71208;DHT22;58938;49.868;8.646;2022-08-05T06:08:22;26.90;55.10
71208;DHT22;58938;49.868;8.646;2022-08-05T06:10:48;26.90;55.00
71208;DHT22;58938;49.868;8.646;2022-08-05T06:13:13;27.00;55.00
71208;DHT22;58938;49.868;8.646;2022-08-05T06:15:39;27.00;55.00
71208;DHT22;58938;49.868;8.646;2022-08-05T06:18:05;27.00;55.00
71208;DHT22;58938;49.868;8.646;2022-08-05T06:20:30;26.90;54.90
71208;DHT22;58938;49.868;8.646;2022-08-05T06:22:57;26.90;54.70
71208;DHT22;58938;49.868;8.646;2022-08-05T06:25:22;26.90;54.50
71208;DHT22;58938;49.868;8.646;2022-08-05T06:27:48;26.90;54.50
71208;DHT22;58938;49.868;8.646;2022-08-05T06:30:14;26.90;54.50
71208;DHT22;58938;49.868;8.646;2022-08-05T06:32:41;26.90;54.50
71208;DHT22;58938;49.868;8.646;2022-08-05T06:35:07;26.90;54.50
71208;DHT22;58938;49.868;8.646;2022-08-05T06:37:33;26.90;54.40
71208;DHT22;58938;49.868;8.646;2022-08-05T06:39:58;26.90;54.30
71208;DHT22;58938;49.868;8.646;2022-08-05T06:42:24;27.00;54.10
71208;DHT22;58938;49.868;8.646;2022-08-05T06:44:50;27.00;53.90
71208;DHT22;58938;49.868;8.646;2022-08-05T06:47:15;27.00;53.80
71208;DHT22;58938;49.868;8.646;2022-08-05T06:49:41;27.00;53.80
71208;DHT22;58938;49.868;8.646;2022-08-05T06:52:06;27.00;53.80
71208;DHT22;58938;49.868;8.646;2022-08-05T06:54:32;27.10;53.70
71208;DHT22;58938;49.868;8.646;2022-08-05T06:56:57;27.10;53.60
71208;DHT22;58938;49.868;8.646;2022-08-05T06:59:23;27.10;53.50
71208;DHT22;58938;49.868;8.646;2022-08-05T07:01:48;27.10;53.50
71208;DHT22;58938;49.868;8.646;2022-08-05T07:04:14;27.10;53.30
71208;DHT22;58938;49.868;8.646;2022-08-05T07:06:40;27.00;53.20
71208;DHT22;58938;49.868;8.646;2022-08-05T07:09:05;27.00;53.20
71208;DHT22;58938;49.868;8.646;2022-08-05T07:11:34;27.10;53.50
71208;DHT22;58938;49.868;8.646;2022-08-05T07:14:00;27.10;53.80
71208;DHT22;58938;49.868;8.646;2022-08-05T07:16:44;27.00;54.40
71208;DHT22;58938;49.868;8.646;2022-08-05T07:19:20;27.00;55.00
71208;DHT22;58938;49.868;8.646;2022-08-05T07:21:47;26.90;55.20
71208;DHT22;58938;49.868;8.646;2022-08-05T07:24:13;26.90;55.30
71208;DHT22;58938;49.868;8.646;2022-08-05T07:26:39;26.80;54.70
71208;DHT22;58938;49.868;8.646;2022-08-05T07:29:05;26.70;54.80
71208;DHT22;58938;49.868;8.646;2022-08-05T07:31:31;26.60;54.70
71208;DHT22;58938;49.868;8.646;2022-08-05T07:33:56;26.50;55.10
71208;DHT22;58938;49.868;8.646;2022-08-05T07:36:22;26.50;55.30
71208;DHT22;58938;49.868;8.646;2022-08-05T07:38:48;26.50;55.50
71208;DHT22;58938;49.868;8.646;2022-08-05T07:41:18;26.40;55.90
71208;DHT22;58938;49.868;8.646;2022-08-05T07:43:45;26.40;56.20
71208;DHT22;58938;49.868;8.646;2022-08-05T07:46:11;26.40;56.70
71208;DHT22;58938;49.868;8.646;2022-08-05T07:48:37;26.30;57.00
71208;DHT22;58938;49.868;8.646;2022-08-05T07:51:02;26.30;57.40
71208;DHT22;58938;49.868;8.646;2022-08-05T07:53:28;26.30;57.60
71208;DHT22;58938;49.868;8.646;2022-08-05T07:55:54;26.30;57.90
71208;DHT22;58938;49.868;8.646;2022-08-05T07:58:19;26.30;58.30
71208;DHT22;58938;49.868;8.646;2022-08-05T08:00:45;26.30;58.50
71208;DHT22;58938;49.868;8.646;2022-08-05T08:03:11;26.30;58.70
71208;DHT22;58938;49.868;8.646;2022-08-05T08:05:38;26.20;58.90
71208;DHT22;58938;49.868;8.646;2022-08-05T08:08:04;26.20;58.90
71208;DHT22;58938;49.868;8.646;2022-08-05T08:10:29;26.20;59.10
71208;DHT22;58938;49.868;8.646;2022-08-05T08:12:55;26.20;59.30
71208;DHT22;58938;49.868;8.646;2022-08-05T08:15:21;26.20;59.60
71208;DHT22;58938;49.868;8.646;2022-08-05T08:17:46;26.20;59.70
71208;DHT22;58938;49.868;8.646;2022-08-05T08:20:12;26.20;60.10
71208;DHT22;58938;49.868;8.646;2022-08-05T08:22:38;26.20;60.30
71208;DHT22;58938;49.868;8.646;2022-08-05T08:25:04;26.10;60.30
71208;DHT22;58938;49.868;8.646;2022-08-05T08:27:31;26.10;60.30
71208;DHT22;58938;49.868;8.646;2022-08-05T08:29:57;26.10;60.10
71208;DHT22;58938;49.868;8.646;2022-08-05T08:32:22;26.00;60.10
71208;DHT22;58938;49.868;8.646;2022-08-05T08:34:48;26.00;60.00
71208;DHT22;58938;49.868;8.646;2022-08-05T08:37:14;26.00;59.80
71208;DHT22;58938;49.868;8.646;2022-08-05T08:39:40;26.00;59.60
71208;DHT22;58938;49.868;8.646;2022-08-05T08:42:08;26.00;59.60
71208;DHT22;58938;49.868;8.646;2022-08-05T08:44:35;26.00;59.60
71208;DHT22;58938;49.868;8.646;2022-08-05T08:47:04;25.90;59.40
71208;DHT22;58938;49.868;8.646;2022-08-05T08:49:33;25.90;59.10
71208;DHT22;58938;49.868;8.646;2022-08-05T08:52:22;26.00;59.30
71208;DHT22;58938;49.868;8.646;2022-08-05T08:54:52;25.90;59.20
71208;DHT22;58938;49.868;8.646;2022-08-05T08:57:18;25.90;59.10
71208;DHT22;58938;49.868;8.646;2022-08-05T08:59:43;25.90;59.20
71208;DHT22;58938;49.868;8.646;2022-08-05T09:02:10;25.90;59.30
71208;DHT22;58938;49.868;8.646;2022-08-05T09:04:36;25.90;59.30
71208;DHT22;58938;49.868;8.646;2022-08-05T09:07:03;25.90;59.30
71208;DHT22;58938;49.868;8.646;2022-08-05T09:09:30;25.90;59.20
71208;DHT22;58938;49.868;8.646;2022-08-05T09:11:56;25.90;59.20
71208;DHT22;58938;49.868;8.646;2022-08-05T09:14:22;26.00;59.10
71208;DHT22;58938;49.868;8.646;2022-08-05T09:16:48;26.00;59.00
71208;DHT22;58938;49.868;8.646;2022-08-05T09:19:14;26.00;59.00
71208;DHT22;58938;49.868;8.646;2022-08-05T09:21:39;26.00;58.90
71208;DHT22;58938;49.868;8.646;2022-08-05T09:24:07;26.00;58.90
71208;DHT22;58938;49.868;8.646;2022-08-05T09:26:34;26.10;59.00
71208;DHT22;58938;49.868;8.646;2022-08-05T09:29:00;26.10;58.90
71208;DHT22;58938;49.868;8.646;2022-08-05T09:31:29;26.10;58.80
71208;DHT22;58938;49.868;8.646;2022-08-05T09:33:57;26.10;58.70
71208;DHT22;58938;49.868;8.646;2022-08-05T09:36:36;26.10;58.40
71208;DHT22;58938;49.868;8.646;2022-08-05T09:39:07;26.10;58.30
71208;DHT22;58938;49.868;8.646;2022-08-05T09:41:33;26.10;58.20
71208;DHT22;58938;49.868;8.646;2022-08-05T09:43:59;26.10;58.00
71208;DHT22;58938;49.868;8.646;2022-08-05T09:46:31;26.10;57.90
71208;DHT22;58938;49.868;8.646;2022-08-05T09:48:58;26.20;57.70
71208;DHT22;58938;49.868;8.646;2022-08-05T09:51:35;26.20;56.80
71208;DHT22;58938;49.868;8.646;2022-08-05T09:54:06;26.20;56.90
71208;DHT22;58938;49.868;8.646;2022-08-05T09:56:37;26.20;56.90
71208;DHT22;58938;49.868;8.646;2022-08-05T09:59:07;26.20;56.00
71208;DHT22;58938;49.868;8.646;2022-08-05T10:01:34;26.20;56.00
71208;DHT22;58938;49.868;8.646;2022-08-05T10:04:09;26.30;55.60
71208;DHT22;58938;49.868;8.646;2022-08-05T10:06:51;26.30;55.40
71208;DHT22;58938;49.868;8.646;2022-08-05T10:09:18;26.30;54.80
71208;DHT22;58938;49.868;8.646;2022-08-05T10:11:46;26.30;54.30
71208;DHT22;58938;49.868;8.646;2022-08-05T10:16:50;26.40;53.70
71208;DHT22;58938;49.868;8.646;2022-08-05T10:19:15;26.40;53.10
71208;DHT22;58938;49.868;8.646;2022-08-05T10:21:41;26.40;52.80
71208;DHT22;58938;49.868;8.646;2022-08-05T10:24:11;26.40;52.90
71208;DHT22;58938;49.868;8.646;2022-08-05T10:26:41;26.40;52.70
71208;DHT22;58938;49.868;8.646;2022-08-05T10:29:07;26.40;52.30
71208;DHT22;58938;49.868;8.646;2022-08-05T10:31:33;26.40;52.50
71208;DHT22;58938;49.868;8.646;2022-08-05T10:33:59;26.40;52.50
71208;DHT22;58938;49.868;8.646;2022-08-05T10:36:25;26.50;52.60
71208;DHT22;58938;49.868;8.646;2022-08-05T10:38:54;26.50;52.50
71208;DHT22;58938;49.868;8.646;2022-08-05T10:41:30;26.50;52.60
71208;DHT22;58938;49.868;8.646;2022-08-05T10:46:49;26.60;53.00
71208;DHT22;58938;49.868;8.646;2022-08-05T10:49:15;26.60;53.00
71208;DHT22;58938;49.868;8.646;2022-08-05T10:51:45;26.60;52.80
71208;DHT22;58938;49.868;8.646;2022-08-05T10:54:11;26.70;52.40
71208;DHT22;58938;49.868;8.646;2022-08-05T10:57:03;26.70;51.90
71208;DHT22;58938;49.868;8.646;2022-08-05T10:59:30;26.70;51.60
71208;DHT22;58938;49.868;8.646;2022-08-05T11:02:09;26.70;51.40
71208;DHT22;58938;49.868;8.646;2022-08-05T11:04:46;26.80;51.30
71208;DHT22;58938;49.868;8.646;2022-08-05T11:07:13;26.80;51.00
71208;DHT22;58938;49.868;8.646;2022-08-05T11:09:51;26.80;49.80
71208;DHT22;58938;49.868;8.646;2022-08-05T11:15:06;26.70;49.30
71208;DHT22;58938;49.868;8.646;2022-08-05T11:17:34;26.70;49.40
71208;DHT22;58938;49.868;8.646;2022-08-05T11:20:06;26.70;49.50
71208;DHT22;58938;49.868;8.646;2022-08-05T11:27:51;26.70;49.50
71208;DHT22;58938;49.868;8.646;2022-08-05T11:30:16;26.80;49.60
71208;DHT22;58938;49.868;8.646;2022-08-05T11:32:42;26.80;49.70
71208;DHT22;58938;49.868;8.646;2022-08-05T11:38:12;26.90;49.10
71208;DHT22;58938;49.868;8.646;2022-08-05T11:40:57;26.90;49.00
71208;DHT22;58938;49.868;8.646;2022-08-05T11:43:23;26.90;48.80
71208;DHT22;58938;49.868;8.646;2022-08-05T11:45:49;26.90;48.80
71208;DHT22;58938;49.868;8.646;2022-08-05T11:48:14;27.00;48.80
71208;DHT22;58938;49.868;8.646;2022-08-05T11:50:40;27.00;48.70
71208;DHT22;58938;49.868;8.646;2022-08-05T11:53:07;27.00;48.70
71208;DHT22;58938;49.868;8.646;2022-08-05T11:55:32;27.00;48.60
71208;DHT22;58938;49.868;8.646;2022-08-05T11:57:58;27.00;48.10
71208;DHT22;58938;49.868;8.646;2022-08-05T12:00:28;27.10;48.40
71208;DHT22;58938;49.868;8.646;2022-08-05T12:02:53;27.10;48.40
71208;DHT22;58938;49.868;8.646;2022-08-05T12:05:26;27.10;48.40
71208;DHT22;58938;49.868;8.646;2022-08-05T12:07:56;27.10;48.30
71208;DHT22;58938;49.868;8.646;2022-08-05T12:10:25;27.10;48.30
71208;DHT22;58938;49.868;8.646;2022-08-05T12:12:51;27.10;48.40
71208;DHT22;58938;49.868;8.646;2022-08-05T12:15:21;27.10;48.50
71208;DHT22;58938;49.868;8.646;2022-08-05T12:17:46;27.20;48.40
71208;DHT22;58938;49.868;8.646;2022-08-05T12:20:12;27.20;48.30
71208;DHT22;58938;49.868;8.646;2022-08-05T12:22:38;27.20;48.30
71208;DHT22;58938;49.868;8.646;2022-08-05T12:25:04;27.20;48.20
71208;DHT22;58938;49.868;8.646;2022-08-05T12:27:30;27.20;48.10
71208;DHT22;58938;49.868;8.646;2022-08-05T12:30:00;27.30;48.20
71208;DHT22;58938;49.868;8.646;2022-08-05T12:32:27;27.30;48.20
71208;DHT22;58938;49.868;8.646;2022-08-05T12:34:52;27.40;48.30
71208;DHT22;58938;49.868;8.646;2022-08-05T12:37:18;27.40;48.10
71208;DHT22;58938;49.868;8.646;2022-08-05T12:39:44;27.40;47.90
71208;DHT22;58938;49.868;8.646;2022-08-05T12:42:12;27.40;47.90
71208;DHT22;58938;49.868;8.646;2022-08-05T12:44:38;27.40;48.00
71208;DHT22;58938;49.868;8.646;2022-08-05T12:47:05;27.50;48.00
71208;DHT22;58938;49.868;8.646;2022-08-05T12:49:45;27.40;48.00
71208;DHT22;58938;49.868;8.646;2022-08-05T12:52:15;27.50;48.00
71208;DHT22;58938;49.868;8.646;2022-08-05T12:54:42;27.40;48.00
71208;DHT22;58938;49.868;8.646;2022-08-05T12:57:09;27.50;48.00
71208;DHT22;58938;49.868;8.646;2022-08-05T13:00:18;27.50;48.10
71208;DHT22;58938;49.868;8.646;2022-08-05T13:02:45;27.50;48.10
71208;DHT22;58938;49.868;8.646;2022-08-05T13:05:10;27.60;48.30
71208;DHT22;58938;49.868;8.646;2022-08-05T13:07:39;27.60;48.20
71208;DHT22;58938;49.868;8.646;2022-08-05T13:10:10;27.60;48.20
71208;DHT22;58938;49.868;8.646;2022-08-05T13:12:41;27.60;48.20
71208;DHT22;58938;49.868;8.646;2022-08-05T13:15:10;27.60;48.30
71208;DHT22;58938;49.868;8.646;2022-08-05T13:17:35;27.60;48.40
71208;DHT22;58938;49.868;8.646;2022-08-05T13:22:35;27.60;48.60
71208;DHT22;58938;49.868;8.646;2022-08-05T13:25:04;27.60;48.70
71208;DHT22;58938;49.868;8.646;2022-08-05T13:27:33;27.60;48.70
71208;DHT22;58938;49.868;8.646;2022-08-05T13:29:59;27.60;48.70
71208;DHT22;58938;49.868;8.646;2022-08-05T13:32:25;27.60;48.80
71208;DHT22;58938;49.868;8.646;2022-08-05T13:34:51;27.60;48.80
71208;DHT22;58938;49.868;8.646;2022-08-05T13:37:18;27.60;48.90
71208;DHT22;58938;49.868;8.646;2022-08-05T13:39:46;27.60;48.80
71208;DHT22;58938;49.868;8.646;2022-08-05T13:42:12;27.60;48.90
71208;DHT22;58938;49.868;8.646;2022-08-05T13:44:37;27.60;49.00
71208;DHT22;58938;49.868;8.646;2022-08-05T13:47:03;27.60;48.90
71208;DHT22;58938;49.868;8.646;2022-08-05T13:49:28;27.70;48.90
71208;DHT22;58938;49.868;8.646;2022-08-05T13:51:54;27.70;48.90
71208;DHT22;58938;49.868;8.646;2022-08-05T13:54:20;27.70;49.00
71208;DHT22;58938;49.868;8.646;2022-08-05T13:56:45;27.70;49.10
71208;DHT22;58938;49.868;8.646;2022-08-05T13:59:11;27.70;49.10
71208;DHT22;58938;49.868;8.646;2022-08-05T14:01:37;27.70;49.20
71208;DHT22;58938;49.868;8.646;2022-08-05T14:04:03;27.80;49.30
71208;DHT22;58938;49.868;8.646;2022-08-05T14:06:48;27.80;49.30
71208;DHT22;58938;49.868;8.646;2022-08-05T14:09:13;27.80;49.40
71208;DHT22;58938;49.868;8.646;2022-08-05T14:11:39;27.80;49.40
71208;DHT22;58938;49.868;8.646;2022-08-05T14:14:06;27.90;49.50
71208;DHT22;58938;49.868;8.646;2022-08-05T14:16:33;27.90;49.60
71208;DHT22;58938;49.868;8.646;2022-08-05T14:18:59;27.90;49.70
71208;DHT22;58938;49.868;8.646;2022-08-05T14:21:24;27.90;49.60
71208;DHT22;58938;49.868;8.646;2022-08-05T14:23:50;27.80;49.70
71208;DHT22;58938;49.868;8.646;2022-08-05T14:26:15;27.80;49.60
71208;DHT22;58938;49.868;8.646;2022-08-05T14:28:41;27.80;49.40
71208;DHT22;58938;49.868;8.646;2022-08-05T14:31:07;27.80;49.40
71208;DHT22;58938;49.868;8.646;2022-08-05T14:33:33;27.80;49.30
71208;DHT22;58938;49.868;8.646;2022-08-05T14:35:59;27.80;49.30
71208;DHT22;58938;49.868;8.646;2022-08-05T14:38:26;27.80;49.40
71208;DHT22;58938;49.868;8.646;2022-08-05T14:40:51;27.80;49.70
71208;DHT22;58938;49.868;8.646;2022-08-05T14:43:17;27.70;49.90
71208;DHT22;58938;49.868;8.646;2022-08-05T14:45:42;27.70;50.00
71208;DHT22;58938;49.868;8.646;2022-08-05T14:48:08;27.60;50.20
71208;DHT22;58938;49.868;8.646;2022-08-05T14:50:33;27.60;50.40
71208;DHT22;58938;49.868;8.646;2022-08-05T14:52:59;27.50;50.60
71208;DHT22;58938;49.868;8.646;2022-08-05T14:55:26;27.50;50.60
71208;DHT22;58938;49.868;8.646;2022-08-05T14:57:51;27.40;50.60
71208;DHT22;58938;49.868;8.646;2022-08-05T15:00:17;27.40;50.60
71208;DHT22;58938;49.868;8.646;2022-08-05T15:02:42;27.40;50.50
71208;DHT22;58938;49.868;8.646;2022-08-05T15:05:08;27.30;50.40
71208;DHT22;58938;49.868;8.646;2022-08-05T15:07:34;27.20;50.10
71208;DHT22;58938;49.868;8.646;2022-08-05T15:09:59;27.10;50.00
71208;DHT22;58938;49.868;8.646;2022-08-05T15:12:25;27.10;49.90
71208;DHT22;58938;49.868;8.646;2022-08-05T15:14:50;27.00;49.90
71208;DHT22;58938;49.868;8.646;2022-08-05T15:17:19;27.00;49.80
71208;DHT22;58938;49.868;8.646;2022-08-05T15:19:45;27.00;49.70
71208;DHT22;58938;49.868;8.646;2022-08-05T15:22:10;26.90;49.80
71208;DHT22;58938;49.868;8.646;2022-08-05T15:24:36;26.90;49.80
71208;DHT22;58938;49.868;8.646;2022-08-05T15:27:02;26.90;49.90
71208;DHT22;58938;49.868;8.646;2022-08-05T15:29:27;26.80;49.80
71208;DHT22;58938;49.868;8.646;2022-08-05T15:31:53;26.80;49.60
71208;DHT22;58938;49.868;8.646;2022-08-05T15:34:18;26.70;49.70
71208;DHT22;58938;49.868;8.646;2022-08-05T15:36:44;26.70;49.70
71208;DHT22;58938;49.868;8.646;2022-08-05T15:39:09;26.70;49.70
71208;DHT22;58938;49.868;8.646;2022-08-05T15:41:35;26.70;49.70
71208;DHT22;58938;49.868;8.646;2022-08-05T15:44:01;26.70;49.60
71208;DHT22;58938;49.868;8.646;2022-08-05T15:46:26;26.70;49.40
71208;DHT22;58938;49.868;8.646;2022-08-05T15:48:53;26.60;49.40
71208;DHT22;58938;49.868;8.646;2022-08-05T15:51:18;26.60;49.40
71208;DHT22;58938;49.868;8.646;2022-08-05T15:53:48;26.60;49.30
71208;DHT22;58938;49.868;8.646;2022-08-05T15:56:16;26.50;49.20
71208;DHT22;58938;49.868;8.646;2022-08-05T15:58:41;26.50;49.20